sensor_id;sensor_type;location;lat;lon;timestamp;temperature;humidity
52451;DHT22;38366;53.176;6.540;2023-04-23T00:01:26;9.10;99.90
52451;DHT22;38366;53.176;6.540;2023-04-23T00:03:54;9.00;99.90
52451;DHT22;38366;53.176;6.540;2023-04-23T00:06:21;9.00;99.90
52451;DHT22;38366;53.176;6.540;2023-04-23T00:08:47;9.00;99.90
52451;DHT22;38366;53.176;6.540;2023-04-23T00:11:15;8.90;99.90
52451;DHT22;38366;53.176;6.540;2023-04-23T00:13:41;8.90;99.90
52451;DHT22;38366;53.176;6.540;2023-04-23T00:16:07;8.80;99.90
52451;DHT22;38366;53.176;6.540;2023-04-23T00:18:35;8.80;99.90
52451;DHT22;38366;53.176;6.540;2023-04-23T00:21:00;8.80;99.90
52451;DHT22;38366;53.176;6.540;2023-04-23T00:23:27;8.80;99.90
52451;DHT22;38366;53.176;6.540;2023-04-23T00:25:53;8.70;99.90
52451;DHT22;38366;53.176;6.540;2023-04-23T00:28:19;8.70;99.90
52451;DHT22;38366;53.176;6.540;2023-04-23T00:30:45;8.70;99.90
52451;DHT22;38366;53.176;6.540;2023-04-23T00:33:11;8.60;99.90
52451;DHT22;38366;53.176;6.540;2023-04-23T00:35:36;8.60;99.90
52451;DHT22;38366;53.176;6.540;2023-04-23T00:38:02;8.50;99.90
52451;DHT22;38366;53.176;6.540;2023-04-23T00:40:28;8.60;99.90
52451;DHT22;38366;53.176;6.540;2023-04-23T00:42:54;8.60;99.90
52451;DHT22;38366;53.176;6.540;2023-04-23T00:45:20;8.60;99.90
52451;DHT22;38366;53.176;6.540;2023-04-23T00:47:47;8.60;99.90
52451;DHT22;38366;53.176;6.540;2023-04-23T00:50:13;8.60;99.90
52451;DHT22;38366;53.176;6.540;2023-04-23T00:52:39;8.60;99.90
52451;DHT22;38366;53.176;6.540;2023-04-23T00:55:06;8.60;99.90
52451;DHT22;38366;53.176;6.540;2023-04-23T00:57:36;8.60;99.90
52451;DHT22;38366;53.176;6.540;2023-04-23T01:00:04;8.60;99.90
52451;DHT22;38366;53.176;6.540;2023-04-23T01:02:30;8.80;99.90
52451;DHT22;38366;53.176;6.540;2023-04-23T01:04:57;8.50;99.90
52451;DHT22;38366;53.176;6.540;2023-04-23T01:07:25;8.50;99.90
52451;DHT22;38366;53.176;6.540;2023-04-23T01:09:51;8.50;99.90
52451;DHT22;38366;53.176;6.540;2023-04-23T01:12:17;8.50;99.90
52451;DHT22;38366;53.176;6.540;2023-04-23T01:14:43;8.50;99.90
52451;DHT22;38366;53.176;6.540;2023-04-23T01:17:10;8.40;99.90
52451;DHT22;38366;53.176;6.540;2023-04-23T01:19:39;8.40;99.90
52451;DHT22;38366;53.176;6.540;2023-04-23T01:22:12;8.40;99.90
52451;DHT22;38366;53.176;6.540;2023-04-23T01:24:38;8.50;99.90
52451;DHT22;38366;53.176;6.540;2023-04-23T01:27:04;8.50;99.90
52451;DHT22;38366;53.176;6.540;2023-04-23T01:29:31;8.50;99.90
52451;DHT22;38366;53.176;6.540;2023-04-23T01:31:58;8.50;99.90
52451;DHT22;38366;53.176;6.540;2023-04-23T01:34:24;8.40;99.90
52451;DHT22;38366;53.176;6.540;2023-04-23T01:36:51;8.30;99.90
52451;DHT22;38366;53.176;6.540;2023-04-23T01:39:17;8.30;99.90
52451;DHT22;38366;53.176;6.540;2023-04-23T01:41:43;8.30;99.90
52451;DHT22;38366;53.176;6.540;2023-04-23T01:44:09;8.20;99.90
52451;DHT22;38366;53.176;6.540;2023-04-23T01:46:35;8.20;99.90
52451;DHT22;38366;53.176;6.540;2023-04-23T01:49:01;8.20;99.90
52451;DHT22;38366;53.176;6.540;2023-04-23T01:51:28;8.20;99.90
52451;DHT22;38366;53.176;6.540;2023-04-23T01:53:55;8.20;99.90
52451;DHT22;38366;53.176;6.540;2023-04-23T01:56:24;8.20;99.90
52451;DHT22;38366;53.176;6.540;2023-04-23T01:58:51;8.00;99.90
52451;DHT22;38366;53.176;6.540;2023-04-23T02:01:17;8.10;99.90
52451;DHT22;38366;53.176;6.540;2023-04-23T02:03:43;8.20;99.90
52451;DHT22;38366;53.176;6.540;2023-04-23T02:06:09;8.00;99.90
52451;DHT22;38366;53.176;6.540;2023-04-23T02:08:35;8.00;99.90
52451;DHT22;38366;53.176;6.540;2023-04-23T02:11:01;8.00;99.90
52451;DHT22;38366;53.176;6.540;2023-04-23T02:13:27;8.00;99.90
52451;DHT22;38366;53.176;6.540;2023-04-23T02:15:52;7.90;99.90
52451;DHT22;38366;53.176;6.540;2023-04-23T02:18:18;7.90;99.90
52451;DHT22;38366;53.176;6.540;2023-04-23T02:20:44;8.00;99.90
52451;DHT22;38366;53.176;6.540;2023-04-23T02:23:09;8.00;99.90
52451;DHT22;38366;53.176;6.540;2023-04-23T02:25:36;8.00;99.90
52451;DHT22;38366;53.176;6.540;2023-04-23T02:28:06;7.90;99.90
52451;DHT22;38366;53.176;6.540;2023-04-23T02:30:34;8.00;99.90
52451;DHT22;38366;53.176;6.540;2023-04-23T02:33:00;7.90;99.90
52451;DHT22;38366;53.176;6.540;2023-04-23T02:35:25;7.90;99.90
52451;DHT22;38366;53.176;6.540;2023-04-23T02:37:52;8.00;99.90
52451;DHT22;38366;53.176;6.540;2023-04-23T02:40:19;7.90;99.90
52451;DHT22;38366;53.176;6.540;2023-04-23T02:42:45;7.90;99.90
52451;DHT22;38366;53.176;6.540;2023-04-23T02:45:11;7.90;99.90
52451;DHT22;38366;53.176;6.540;2023-04-23T02:47:37;7.80;99.90
52451;DHT22;38366;53.176;6.540;2023-04-23T02:50:03;7.80;99.90
52451;DHT22;38366;53.176;6.540;2023-04-23T02:52:31;7.80;99.90
52451;DHT22;38366;53.176;6.540;2023-04-23T02:54:57;7.80;99.90
52451;DHT22;38366;53.176;6.540;2023-04-23T02:57:23;7.80;99.90
52451;DHT22;38366;53.176;6.540;2023-04-23T02:59:49;7.80;99.90
52451;DHT22;38366;53.176;6.540;2023-04-23T03:02:15;7.80;99.90
52451;DHT22;38366;53.176;6.540;2023-04-23T03:04:41;7.80;99.90
52451;DHT22;38366;53.176;6.540;2023-04-23T03:07:06;7.90;99.90
52451;DHT22;38366;53.176;6.540;2023-04-23T03:09:32;7.80;99.90
52451;DHT22;38366;53.176;6.540;2023-04-23T03:11:58;7.90;99.90
52451;DHT22;38366;53.176;6.540;2023-04-23T03:14:24;7.80;99.90
52451;DHT22;38366;53.176;6.540;2023-04-23T03:16:50;7.80;99.90
52451;DHT22;38366;53.176;6.540;2023-04-23T03:19:15;7.80;99.90
52451;DHT22;38366;53.176;6.540;2023-04-23T03:21:41;7.90;99.90
52451;DHT22;38366;53.176;6.540;2023-04-23T03:24:07;7.80;99.90
52451;DHT22;38366;53.176;6.540;2023-04-23T03:26:33;7.90;99.90
52451;DHT22;38366;53.176;6.540;2023-04-23T03:28:59;7.90;99.90
52451;DHT22;38366;53.176;6.540;2023-04-23T03:31:25;7.80;99.90
52451;DHT22;38366;53.176;6.540;2023-04-23T03:33:50;7.70;99.90
52451;DHT22;38366;53.176;6.540;2023-04-23T03:36:16;7.70;99.90
52451;DHT22;38366;53.176;6.540;2023-04-23T03:38:42;7.70;99.90
52451;DHT22;38366;53.176;6.540;2023-04-23T03:41:08;7.60;99.90
52451;DHT22;38366;53.176;6.540;2023-04-23T03:43:34;7.70;99.90
52451;DHT22;38366;53.176;6.540;2023-04-23T03:45:59;7.70;99.90
52451;DHT22;38366;53.176;6.540;2023-04-23T03:48:25;7.70;99.90
52451;DHT22;38366;53.176;6.540;2023-04-23T03:50:51;7.70;99.90
52451;DHT22;38366;53.176;6.540;2023-04-23T03:53:17;7.70;99.90
52451;DHT22;38366;53.176;6.540;2023-04-23T03:55:43;7.70;99.90
52451;DHT22;38366;53.176;6.540;2023-04-23T03:58:08;7.70;99.90
52451;DHT22;38366;53.176;6.540;2023-04-23T04:00:35;7.70;99.90
52451;DHT22;38366;53.176;6.540;2023-04-23T04:03:01;7.70;99.90
52451;DHT22;38366;53.176;6.540;2023-04-23T04:05:27;7.80;99.90
52451;DHT22;38366;53.176;6.540;2023-04-23T04:07:53;7.80;99.90
52451;DHT22;38366;53.176;6.540;2023-04-23T04:10:19;7.80;99.90
52451;DHT22;38366;53.176;6.540;2023-04-23T04:12:44;7.80;99.90
52451;DHT22;38366;53.176;6.540;2023-04-23T04:15:13;7.80;99.90
52451;DHT22;38366;53.176;6.540;2023-04-23T04:17:39;7.80;99.90
52451;DHT22;38366;53.176;6.540;2023-04-23T04:20:06;7.80;99.90
52451;DHT22;38366;53.176;6.540;2023-04-23T04:22:35;7.80;99.90
52451;DHT22;38366;53.176;6.540;2023-04-23T04:25:01;7.80;99.90
52451;DHT22;38366;53.176;6.540;2023-04-23T04:27:27;7.80;99.90
52451;DHT22;38366;53.176;6.540;2023-04-23T04:29:53;7.90;99.90
52451;DHT22;38366;53.176;6.540;2023-04-23T04:32:18;7.90;99.90
52451;DHT22;38366;53.176;6.540;2023-04-23T04:34:44;7.90;99.90
52451;DHT22;38366;53.176;6.540;2023-04-23T04:37:09;7.90;99.90
52451;DHT22;38366;53.176;6.540;2023-04-23T04:39:36;7.90;99.90
52451;DHT22;38366;53.176;6.540;2023-04-23T04:42:03;7.90;99.90
52451;DHT22;38366;53.176;6.540;2023-04-23T04:44:29;7.90;99.90
52451;DHT22;38366;53.176;6.540;2023-04-23T04:46:55;7.90;99.90
52451;DHT22;38366;53.176;6.540;2023-04-23T04:49:21;8.00;99.90
52451;DHT22;38366;53.176;6.540;2023-04-23T04:51:46;7.90;99.90
52451;DHT22;38366;53.176;6.540;2023-04-23T04:54:12;7.90;99.90
52451;DHT22;38366;53.176;6.540;2023-04-23T04:56:39;7.90;99.90
52451;DHT22;38366;53.176;6.540;2023-04-23T04:59:04;7.90;99.90
52451;DHT22;38366;53.176;6.540;2023-04-23T05:01:30;7.90;99.90
52451;DHT22;38366;53.176;6.540;2023-04-23T05:03:58;7.90;99.90
52451;DHT22;38366;53.176;6.540;2023-04-23T05:06:24;7.90;99.90
52451;DHT22;38366;53.176;6.540;2023-04-23T05:08:50;7.90;99.90
52451;DHT22;38366;53.176;6.540;2023-04-23T05:11:16;7.90;99.90
52451;DHT22;38366;53.176;6.540;2023-04-23T05:13:43;7.80;99.90
52451;DHT22;38366;53.176;6.540;2023-04-23T05:16:09;7.80;99.90
52451;DHT22;38366;53.176;6.540;2023-04-23T05:18:37;7.90;99.90
52451;DHT22;38366;53.176;6.540;2023-04-23T05:21:02;7.90;99.90
52451;DHT22;38366;53.176;6.540;2023-04-23T05:23:28;7.90;99.90
52451;DHT22;38366;53.176;6.540;2023-04-23T05:25:54;7.90;99.90
52451;DHT22;38366;53.176;6.540;2023-04-23T05:28:20;7.90;99.90
52451;DHT22;38366;53.176;6.540;2023-04-23T05:30:46;8.00;99.90
52451;DHT22;38366;53.176;6.540;2023-04-23T05:33:12;8.00;99.90
52451;DHT22;38366;53.176;6.540;2023-04-23T05:35:37;7.90;99.90
52451;DHT22;38366;53.176;6.540;2023-04-23T05:38:03;8.00;99.90
52451;DHT22;38366;53.176;6.540;2023-04-23T05:40:31;8.00;99.90
52451;DHT22;38366;53.176;6.540;2023-04-23T05:43:00;8.00;99.90
52451;DHT22;38366;53.176;6.540;2023-04-23T05:45:26;8.00;99.90
52451;DHT22;38366;53.176;6.540;2023-04-23T05:47:52;8.00;99.90
52451;DHT22;38366;53.176;6.540;2023-04-23T05:50:18;8.00;99.90
52451;DHT22;38366;53.176;6.540;2023-04-23T05:52:44;8.10;99.90
52451;DHT22;38366;53.176;6.540;2023-04-23T05:55:10;8.10;99.90
52451;DHT22;38366;53.176;6.540;2023-04-23T05:57:36;8.20;99.90
52451;DHT22;38366;53.176;6.540;2023-04-23T06:00:04;8.20;99.90
52451;DHT22;38366;53.176;6.540;2023-04-23T06:02:30;8.20;99.90
52451;DHT22;38366;53.176;6.540;2023-04-23T06:04:58;8.30;99.90
52451;DHT22;38366;53.176;6.540;2023-04-23T06:07:24;8.40;99.90
52451;DHT22;38366;53.176;6.540;2023-04-23T06:09:49;8.40;99.90
52451;DHT22;38366;53.176;6.540;2023-04-23T06:12:15;8.50;99.90
52451;DHT22;38366;53.176;6.540;2023-04-23T06:14:41;8.50;99.90
52451;DHT22;38366;53.176;6.540;2023-04-23T06:17:06;8.60;99.90
52451;DHT22;38366;53.176;6.540;2023-04-23T06:19:32;8.60;99.90
52451;DHT22;38366;53.176;6.540;2023-04-23T06:21:58;8.70;99.90
52451;DHT22;38366;53.176;6.540;2023-04-23T06:24:24;8.80;99.90
52451;DHT22;38366;53.176;6.540;2023-04-23T06:26:49;9.10;99.90
52451;DHT22;38366;53.176;6.540;2023-04-23T06:29:15;9.30;99.90
52451;DHT22;38366;53.176;6.540;2023-04-23T06:31:41;9.60;99.90
52451;DHT22;38366;53.176;6.540;2023-04-23T06:34:07;9.80;99.90
52451;DHT22;38366;53.176;6.540;2023-04-23T06:36:32;9.90;99.90
52451;DHT22;38366;53.176;6.540;2023-04-23T06:38:58;10.00;99.90
52451;DHT22;38366;53.176;6.540;2023-04-23T06:41:24;10.00;99.90
52451;DHT22;38366;53.176;6.540;2023-04-23T06:43:50;10.00;99.90
52451;DHT22;38366;53.176;6.540;2023-04-23T06:46:15;10.30;99.90
52451;DHT22;38366;53.176;6.540;2023-04-23T06:48:41;10.40;99.90
52451;DHT22;38366;53.176;6.540;2023-04-23T06:51:07;10.50;99.90
52451;DHT22;38366;53.176;6.540;2023-04-23T06:53:33;10.50;99.90
52451;DHT22;38366;53.176;6.540;2023-04-23T06:55:58;10.40;99.90
52451;DHT22;38366;53.176;6.540;2023-04-23T06:58:24;10.40;99.90
52451;DHT22;38366;53.176;6.540;2023-04-23T07:00:56;10.70;99.90
52451;DHT22;38366;53.176;6.540;2023-04-23T07:03:26;11.20;99.90
52451;DHT22;38366;53.176;6.540;2023-04-23T07:05:52;11.80;99.90
52451;DHT22;38366;53.176;6.540;2023-04-23T07:08:18;12.20;99.90
52451;DHT22;38366;53.176;6.540;2023-04-23T07:10:45;12.50;99.90
52451;DHT22;38366;53.176;6.540;2023-04-23T07:13:11;12.80;99.90
52451;DHT22;38366;53.176;6.540;2023-04-23T07:15:37;13.00;99.90
52451;DHT22;38366;53.176;6.540;2023-04-23T07:18:03;13.30;99.90
52451;DHT22;38366;53.176;6.540;2023-04-23T07:20:29;13.40;99.90
52451;DHT22;38366;53.176;6.540;2023-04-23T07:22:55;13.50;99.90
52451;DHT22;38366;53.176;6.540;2023-04-23T07:25:21;13.60;99.90
52451;DHT22;38366;53.176;6.540;2023-04-23T07:27:49;13.80;99.90
52451;DHT22;38366;53.176;6.540;2023-04-23T07:30:14;14.00;99.90
52451;DHT22;38366;53.176;6.540;2023-04-23T07:32:41;14.00;99.90
52451;DHT22;38366;53.176;6.540;2023-04-23T07:35:08;14.10;99.90
52451;DHT22;38366;53.176;6.540;2023-04-23T07:37:35;14.40;99.90
52451;DHT22;38366;53.176;6.540;2023-04-23T07:40:02;14.40;99.90
52451;DHT22;38366;53.176;6.540;2023-04-23T07:42:30;14.20;99.90
52451;DHT22;38366;53.176;6.540;2023-04-23T07:44:56;14.00;99.90
52451;DHT22;38366;53.176;6.540;2023-04-23T07:47:21;13.90;99.90
52451;DHT22;38366;53.176;6.540;2023-04-23T07:49:47;14.10;99.90
52451;DHT22;38366;53.176;6.540;2023-04-23T07:52:13;14.20;99.90
52451;DHT22;38366;53.176;6.540;2023-04-23T07:54:39;14.20;99.90
52451;DHT22;38366;53.176;6.540;2023-04-23T07:57:05;14.50;99.90
52451;DHT22;38366;53.176;6.540;2023-04-23T07:59:31;14.90;99.90
52451;DHT22;38366;53.176;6.540;2023-04-23T08:01:56;15.20;99.90
52451;DHT22;38366;53.176;6.540;2023-04-23T08:04:22;15.20;99.90
52451;DHT22;38366;53.176;6.540;2023-04-23T08:06:48;15.20;99.90
52451;DHT22;38366;53.176;6.540;2023-04-23T08:09:14;15.60;99.90
52451;DHT22;38366;53.176;6.540;2023-04-23T08:11:40;15.90;99.90
52451;DHT22;38366;53.176;6.540;2023-04-23T08:14:06;16.40;99.90
52451;DHT22;38366;53.176;6.540;2023-04-23T08:16:31;16.60;99.90
52451;DHT22;38366;53.176;6.540;2023-04-23T08:18:57;16.70;99.90
52451;DHT22;38366;53.176;6.540;2023-04-23T08:21:23;16.70;99.90
52451;DHT22;38366;53.176;6.540;2023-04-23T08:23:50;17.00;99.90
52451;DHT22;38366;53.176;6.540;2023-04-23T08:26:16;17.20;99.90
52451;DHT22;38366;53.176;6.540;2023-04-23T08:28:41;17.00;99.90
52451;DHT22;38366;53.176;6.540;2023-04-23T08:31:07;16.90;99.90
52451;DHT22;38366;53.176;6.540;2023-04-23T08:33:33;17.00;99.90
52451;DHT22;38366;53.176;6.540;2023-04-23T08:35:59;17.10;99.90
52451;DHT22;38366;53.176;6.540;2023-04-23T08:38:24;17.40;99.90
52451;DHT22;38366;53.176;6.540;2023-04-23T08:40:52;17.70;99.90
52451;DHT22;38366;53.176;6.540;2023-04-23T08:43:20;18.10;99.90
52451;DHT22;38366;53.176;6.540;2023-04-23T08:45:48;18.30;99.90
52451;DHT22;38366;53.176;6.540;2023-04-23T08:48:14;18.40;99.90
52451;DHT22;38366;53.176;6.540;2023-04-23T08:50:43;18.70;99.90
52451;DHT22;38366;53.176;6.540;2023-04-23T08:53:09;18.90;99.90
52451;DHT22;38366;53.176;6.540;2023-04-23T08:55:35;19.10;99.90
52451;DHT22;38366;53.176;6.540;2023-04-23T08:58:04;19.10;99.90
52451;DHT22;38366;53.176;6.540;2023-04-23T09:00:31;19.40;99.90
52451;DHT22;38366;53.176;6.540;2023-04-23T09:02:58;19.50;99.90
52451;DHT22;38366;53.176;6.540;2023-04-23T09:05:25;19.60;99.90
52451;DHT22;38366;53.176;6.540;2023-04-23T09:07:51;19.60;99.90
52451;DHT22;38366;53.176;6.540;2023-04-23T09:10:18;19.80;99.90
52451;DHT22;38366;53.176;6.540;2023-04-23T09:12:44;19.80;99.90
52451;DHT22;38366;53.176;6.540;2023-04-23T09:15:12;19.80;99.90
52451;DHT22;38366;53.176;6.540;2023-04-23T09:17:40;20.10;99.90
52451;DHT22;38366;53.176;6.540;2023-04-23T09:20:06;20.50;99.90
52451;DHT22;38366;53.176;6.540;2023-04-23T09:22:39;20.50;99.90
52451;DHT22;38366;53.176;6.540;2023-04-23T09:25:06;20.60;99.90
52451;DHT22;38366;53.176;6.540;2023-04-23T09:27:32;20.80;99.90
52451;DHT22;38366;53.176;6.540;2023-04-23T09:29:59;20.90;99.90
52451;DHT22;38366;53.176;6.540;2023-04-23T09:32:33;20.70;99.90
52451;DHT22;38366;53.176;6.540;2023-04-23T09:35:05;20.70;99.90
52451;DHT22;38366;53.176;6.540;2023-04-23T09:37:32;20.60;99.90
52451;DHT22;38366;53.176;6.540;2023-04-23T09:39:59;20.30;99.90
52451;DHT22;38366;53.176;6.540;2023-04-23T09:42:27;20.10;99.90
52451;DHT22;38366;53.176;6.540;2023-04-23T09:45:07;20.20;99.90
52451;DHT22;38366;53.176;6.540;2023-04-23T09:47:34;20.20;99.90
52451;DHT22;38366;53.176;6.540;2023-04-23T09:50:02;19.90;99.90
52451;DHT22;38366;53.176;6.540;2023-04-23T09:52:30;20.00;99.90
52451;DHT22;38366;53.176;6.540;2023-04-23T09:54:57;19.80;99.90
52451;DHT22;38366;53.176;6.540;2023-04-23T09:57:26;19.80;99.90
52451;DHT22;38366;53.176;6.540;2023-04-23T09:59:55;19.80;99.90
52451;DHT22;38366;53.176;6.540;2023-04-23T10:02:26;19.70;99.90
52451;DHT22;38366;53.176;6.540;2023-04-23T10:04:52;19.90;99.90
52451;DHT22;38366;53.176;6.540;2023-04-23T10:07:18;19.80;99.90
52451;DHT22;38366;53.176;6.540;2023-04-23T10:09:44;19.90;99.90
52451;DHT22;38366;53.176;6.540;2023-04-23T10:12:12;20.00;99.90
52451;DHT22;38366;53.176;6.540;2023-04-23T10:14:38;20.30;99.90
52451;DHT22;38366;53.176;6.540;2023-04-23T10:17:06;20.80;99.90
52451;DHT22;38366;53.176;6.540;2023-04-23T10:19:32;21.20;99.90
52451;DHT22;38366;53.176;6.540;2023-04-23T10:22:00;21.20;99.90
52451;DHT22;38366;53.176;6.540;2023-04-23T10:24:34;21.30;99.90
52451;DHT22;38366;53.176;6.540;2023-04-23T10:27:02;21.50;99.90
52451;DHT22;38366;53.176;6.540;2023-04-23T10:29:33;21.50;99.90
52451;DHT22;38366;53.176;6.540;2023-04-23T10:32:01;21.30;99.90
52451;DHT22;38366;53.176;6.540;2023-04-23T10:34:28;20.90;99.90
52451;DHT22;38366;53.176;6.540;2023-04-23T10:36:56;20.50;99.90
52451;DHT22;38366;53.176;6.540;2023-04-23T10:39:26;20.40;99.90
52451;DHT22;38366;53.176;6.540;2023-04-23T10:41:53;20.80;99.90
52451;DHT22;38366;53.176;6.540;2023-04-23T10:44:20;21.10;99.90
52451;DHT22;38366;53.176;6.540;2023-04-23T10:46:53;21.10;99.90
52451;DHT22;38366;53.176;6.540;2023-04-23T10:49:23;20.80;99.90
52451;DHT22;38366;53.176;6.540;2023-04-23T10:52:11;20.40;99.90
52451;DHT22;38366;53.176;6.540;2023-04-23T10:54:42;20.10;99.90
52451;DHT22;38366;53.176;6.540;2023-04-23T10:57:09;20.40;99.90
52451;DHT22;38366;53.176;6.540;2023-04-23T10:59:38;20.90;99.90
52451;DHT22;38366;53.176;6.540;2023-04-23T11:02:10;21.40;99.90
52451;DHT22;38366;53.176;6.540;2023-04-23T11:05:01;21.70;99.90
52451;DHT22;38366;53.176;6.540;2023-04-23T11:07:32;22.00;99.90
52451;DHT22;38366;53.176;6.540;2023-04-23T11:09:59;21.80;99.90
52451;DHT22;38366;53.176;6.540;2023-04-23T11:14:56;22.20;99.90
52451;DHT22;38366;53.176;6.540;2023-04-23T11:22:45;22.20;99.90
52451;DHT22;38366;53.176;6.540;2023-04-23T11:25:22;22.20;99.90
52451;DHT22;38366;53.176;6.540;2023-04-23T11:27:49;22.00;99.90
52451;DHT22;38366;53.176;6.540;2023-04-23T11:30:20;22.00;99.90
52451;DHT22;38366;53.176;6.540;2023-04-23T11:32:48;22.20;99.90
52451;DHT22;38366;53.176;6.540;2023-04-23T11:35:15;22.30;99.90
52451;DHT22;38366;53.176;6.540;2023-04-23T11:37:43;22.30;99.90
52451;DHT22;38366;53.176;6.540;2023-04-23T11:40:13;22.30;99.90
52451;DHT22;38366;53.176;6.540;2023-04-23T11:42:45;22.40;99.90
52451;DHT22;38366;53.176;6.540;2023-04-23T11:47:49;22.40;99.80
52451;DHT22;38366;53.176;6.540;2023-04-23T11:50:27;22.00;99.90
52451;DHT22;38366;53.176;6.540;2023-04-23T11:52:54;21.60;99.90
52451;DHT22;38366;53.176;6.540;2023-04-23T11:55:22;21.40;99.90
52451;DHT22;38366;53.176;6.540;2023-04-23T11:57:49;21.30;99.90
52451;DHT22;38366;53.176;6.540;2023-04-23T12:00:17;21.20;99.90
52451;DHT22;38366;53.176;6.540;2023-04-23T12:02:53;21.10;99.90
52451;DHT22;38366;53.176;6.540;2023-04-23T12:05:33;21.10;99.90
52451;DHT22;38366;53.176;6.540;2023-04-23T12:08:20;21.10;99.90
52451;DHT22;38366;53.176;6.540;2023-04-23T12:10:51;21.60;99.90
52451;DHT22;38366;53.176;6.540;2023-04-23T12:13:24;21.90;99.90
52451;DHT22;38366;53.176;6.540;2023-04-23T12:15:53;22.30;99.50
52451;DHT22;38366;53.176;6.540;2023-04-23T12:18:39;22.30;98.90
52451;DHT22;38366;53.176;6.540;2023-04-23T12:21:08;22.00;99.50
52451;DHT22;38366;53.176;6.540;2023-04-23T12:23:38;21.90;99.60
52451;DHT22;38366;53.176;6.540;2023-04-23T12:26:12;21.70;99.50
52451;DHT22;38366;53.176;6.540;2023-04-23T12:28:46;21.60;99.80
52451;DHT22;38366;53.176;6.540;2023-04-23T12:31:19;21.50;99.90
52451;DHT22;38366;53.176;6.540;2023-04-23T12:33:45;21.50;99.80
52451;DHT22;38366;53.176;6.540;2023-04-23T12:36:14;21.30;99.40
52451;DHT22;38366;53.176;6.540;2023-04-23T12:38:40;21.20;99.90
52451;DHT22;38366;53.176;6.540;2023-04-23T12:41:07;20.90;99.90
52451;DHT22;38366;53.176;6.540;2023-04-23T12:43:33;20.90;99.90
52451;DHT22;38366;53.176;6.540;2023-04-23T12:45:58;21.00;99.90
52451;DHT22;38366;53.176;6.540;2023-04-23T12:48:24;21.00;99.90
52451;DHT22;38366;53.176;6.540;2023-04-23T12:50:50;21.10;99.90
52451;DHT22;38366;53.176;6.540;2023-04-23T12:53:16;21.30;99.70
52451;DHT22;38366;53.176;6.540;2023-04-23T12:55:42;21.50;99.90
52451;DHT22;38366;53.176;6.540;2023-04-23T12:58:10;21.80;99.00
52451;DHT22;38366;53.176;6.540;2023-04-23T13:00:35;21.80;99.10
52451;DHT22;38366;53.176;6.540;2023-04-23T13:03:01;21.80;99.60
52451;DHT22;38366;53.176;6.540;2023-04-23T13:05:27;21.60;99.10
52451;DHT22;38366;53.176;6.540;2023-04-23T13:07:53;21.50;98.30
52451;DHT22;38366;53.176;6.540;2023-04-23T13:10:18;21.30;98.60
52451;DHT22;38366;53.176;6.540;2023-04-23T13:12:44;21.10;98.30
52451;DHT22;38366;53.176;6.540;2023-04-23T13:15:10;21.00;98.10
52451;DHT22;38366;53.176;6.540;2023-04-23T13:17:37;20.80;98.40
52451;DHT22;38366;53.176;6.540;2023-04-23T13:20:03;20.70;98.60
52451;DHT22;38366;53.176;6.540;2023-04-23T13:22:29;20.70;99.20
52451;DHT22;38366;53.176;6.540;2023-04-23T13:24:56;20.60;99.20
52451;DHT22;38366;53.176;6.540;2023-04-23T13:27:23;20.60;99.90
52451;DHT22;38366;53.176;6.540;2023-04-23T13:29:49;20.60;99.70
52451;DHT22;38366;53.176;6.540;2023-04-23T13:32:15;20.60;99.80
52451;DHT22;38366;53.176;6.540;2023-04-23T13:34:41;20.90;98.50
52451;DHT22;38366;53.176;6.540;2023-04-23T13:37:07;21.00;99.00
52451;DHT22;38366;53.176;6.540;2023-04-23T13:39:37;21.00;98.40
52451;DHT22;38366;53.176;6.540;2023-04-23T13:42:03;21.00;98.90
52451;DHT22;38366;53.176;6.540;2023-04-23T13:44:30;21.10;98.60
52451;DHT22;38366;53.176;6.540;2023-04-23T13:46:56;20.90;98.40
52451;DHT22;38366;53.176;6.540;2023-04-23T13:49:26;21.10;98.50
52451;DHT22;38366;53.176;6.540;2023-04-23T13:51:55;21.20;97.90
52451;DHT22;38366;53.176;6.540;2023-04-23T13:54:25;21.30;97.50
52451;DHT22;38366;53.176;6.540;2023-04-23T13:56:57;21.30;97.30
52451;DHT22;38366;53.176;6.540;2023-04-23T13:59:23;21.20;97.30
52451;DHT22;38366;53.176;6.540;2023-04-23T14:01:49;21.10;97.40
52451;DHT22;38366;53.176;6.540;2023-04-23T14:04:16;21.10;97.20
52451;DHT22;38366;53.176;6.540;2023-04-23T14:06:42;21.00;97.30
52451;DHT22;38366;53.176;6.540;2023-04-23T14:09:07;20.90;97.80
52451;DHT22;38366;53.176;6.540;2023-04-23T14:11:33;20.80;97.30
52451;DHT22;38366;53.176;6.540;2023-04-23T14:13:59;20.80;97.80
52451;DHT22;38366;53.176;6.540;2023-04-23T14:16:25;20.70;98.00
52451;DHT22;38366;53.176;6.540;2023-04-23T14:18:51;20.70;97.90
52451;DHT22;38366;53.176;6.540;2023-04-23T14:21:17;20.90;97.80
52451;DHT22;38366;53.176;6.540;2023-04-23T14:26:35;21.10;97.70
52451;DHT22;38366;53.176;6.540;2023-04-23T14:29:16;21.10;97.10
52451;DHT22;38366;53.176;6.540;2023-04-23T14:31:42;21.10;97.50
52451;DHT22;38366;53.176;6.540;2023-04-23T14:34:08;21.10;97.60
52451;DHT22;38366;53.176;6.540;2023-04-23T14:36:33;21.10;97.40
52451;DHT22;38366;53.176;6.540;2023-04-23T14:39:00;21.10;97.20
52451;DHT22;38366;53.176;6.540;2023-04-23T14:41:33;21.10;97.10
52451;DHT22;38366;53.176;6.540;2023-04-23T14:44:02;21.10;97.00
52451;DHT22;38366;53.176;6.540;2023-04-23T14:46:28;21.00;97.10
52451;DHT22;38366;53.176;6.540;2023-04-23T14:48:54;20.90;97.30
52451;DHT22;38366;53.176;6.540;2023-04-23T14:51:20;20.90;97.40
52451;DHT22;38366;53.176;6.540;2023-04-23T14:53:46;20.90;97.30
52451;DHT22;38366;53.176;6.540;2023-04-23T14:56:11;20.90;97.00
52451;DHT22;38366;53.176;6.540;2023-04-23T14:58:37;20.80;97.20
52451;DHT22;38366;53.176;6.540;2023-04-23T15:01:03;20.70;97.50
52451;DHT22;38366;53.176;6.540;2023-04-23T15:03:29;20.60;97.00
52451;DHT22;38366;53.176;6.540;2023-04-23T15:05:54;20.60;97.30
52451;DHT22;38366;53.176;6.540;2023-04-23T15:08:20;20.70;96.20
52451;DHT22;38366;53.176;6.540;2023-04-23T15:10:49;20.60;95.80
52451;DHT22;38366;53.176;6.540;2023-04-23T15:15:48;20.40;97.10
52451;DHT22;38366;53.176;6.540;2023-04-23T15:18:15;20.30;97.10
52451;DHT22;38366;53.176;6.540;2023-04-23T15:20:42;20.30;97.40
52451;DHT22;38366;53.176;6.540;2023-04-23T15:23:08;20.30;97.50
52451;DHT22;38366;53.176;6.540;2023-04-23T15:25:34;20.20;97.40
52451;DHT22;38366;53.176;6.540;2023-04-23T15:28:00;20.20;97.50
52451;DHT22;38366;53.176;6.540;2023-04-23T15:30:26;20.20;97.20
52451;DHT22;38366;53.176;6.540;2023-04-23T15:32:52;20.20;97.20
52451;DHT22;38366;53.176;6.540;2023-04-23T15:35:23;20.10;97.00
52451;DHT22;38366;53.176;6.540;2023-04-23T15:37:49;20.10;97.30
52451;DHT22;38366;53.176;6.540;2023-04-23T15:40:15;20.10;97.10
52451;DHT22;38366;53.176;6.540;2023-04-23T15:42:41;19.90;96.90
52451;DHT22;38366;53.176;6.540;2023-04-23T15:45:10;19.90;97.30
52451;DHT22;38366;53.176;6.540;2023-04-23T15:47:36;19.90;97.20
52451;DHT22;38366;53.176;6.540;2023-04-23T15:50:07;19.90;97.40
52451;DHT22;38366;53.176;6.540;2023-04-23T15:52:33;20.00;97.40